Time;durP1;ratioP1;P1;durP2;ratioP2;P2;SDS_P1;SDS_P2;PMS_P1;PMS_P2;Temp;Humidity;BMP_temperature;BMP_pressure;BME280_temperature;BME280_humidity;BME280_pressure;Samples;Min_cycle;Max_cycle;Signal;HPM_P1;HPM_P2
2022/07/06 00:02:23;;;;;;;2.53;2.33;;;20.40;95.10;;;;;;5024614;28;20265;-72
2022/07/06 00:04:49;;;;;;;4.67;2.40;;;20.40;95.30;;;;;;5024274;28;20735;-72
2022/07/06 00:07:14;;;;;;;4.30;2.80;;;20.30;95.60;;;;;;5024721;28;20270;-71
2022/07/06 00:09:41;;;;;;;2.43;2.23;;;20.20;96.00;;;;;;5027149;28;20238;-71
2022/07/06 00:12:07;;;;;;;2.30;2.10;;;20.20;96.10;;;;;;5007507;28;20206;-70
2022/07/06 00:14:33;;;;;;;4.93;2.30;;;20.20;96.30;;;;;;5037884;28;20950;-70
2022/07/06 00:16:58;;;;;;;3.10;2.43;;;20.10;96.20;;;;;;5043955;28;20444;-70
2022/07/06 00:19:24;;;;;;;2.33;2.13;;;20.00;96.50;;;;;;5043959;28;20201;-70
2022/07/06 00:21:50;;;;;;;4.00;2.50;;;20.00;97.00;;;;;;5043627;28;20206;-70
2022/07/06 00:24:17;;;;;;;4.47;2.90;;;19.80;97.10;;;;;;5034686;28;20187;-70
2022/07/06 00:26:44;;;;;;;4.07;3.00;;;19.80;97.40;;;;;;5023926;28;20636;-70
2022/07/06 00:29:09;;;;;;;2.90;2.70;;;19.80;97.80;;;;;;5023920;28;20554;-70
2022/07/06 00:31:35;;;;;;;2.63;2.30;;;19.80;98.00;;;;;;5023941;28;20418;-70
2022/07/06 00:34:00;;;;;;;3.43;3.13;;;19.90;98.20;;;;;;5035671;28;20269;-71
2022/07/06 00:36:27;;;;;;;2.70;2.37;;;19.90;98.20;;;;;;5043750;28;20261;-71
2022/07/06 00:38:52;;;;;;;3.40;2.70;;;19.70;98.50;;;;;;5038111;28;20193;-71
2022/07/06 00:41:18;;;;;;;2.30;2.20;;;19.70;98.80;;;;;;5035667;28;20429;-70
2022/07/06 00:43:52;;;;;;;3.70;2.70;;;19.80;98.90;;;;;;5032992;28;20222;-69
2022/07/06 00:46:18;;;;;;;6.20;3.20;;;19.80;99.20;;;;;;5031204;28;20308;-71
2022/07/06 00:48:44;;;;;;;3.00;2.80;;;19.70;99.30;;;;;;5023416;28;21370;-72
2022/07/06 00:51:11;;;;;;;3.00;2.80;;;19.70;99.70;;;;;;5024305;28;20949;-71
2022/07/06 00:53:37;;;;;;;3.03;2.60;;;19.70;99.90;;;;;;5043053;28;20578;-71
2022/07/06 00:56:03;;;;;;;3.10;2.80;;;19.70;99.90;;;;;;5042962;28;20409;-72
2022/07/06 00:58:29;;;;;;;4.20;3.10;;;19.60;99.90;;;;;;5043437;28;20178;-70
2022/07/06 01:00:55;;;;;;;4.20;3.20;;;19.60;99.90;;;;;;5043282;28;20285;-71
2022/07/06 01:03:20;;;;;;;3.13;2.80;;;19.60;99.90;;;;;;5043121;28;20271;-69
2022/07/06 01:05:46;;;;;;;3.20;2.80;;;19.60;99.90;;;;;;5043070;28;20185;-71
2022/07/06 01:08:12;;;;;;;3.10;2.80;;;19.60;99.90;;;;;;5042295;28;20232;-70
2022/07/06 01:10:38;;;;;;;3.17;2.90;;;19.50;99.90;;;;;;5022698;28;20181;-71
2022/07/06 01:13:04;;;;;;;3.27;2.97;;;19.60;99.90;;;;;;5023526;28;20521;-73
2022/07/06 01:15:29;;;;;;;4.13;2.97;;;19.30;99.90;;;;;;5023365;28;20237;-68
2022/07/06 01:17:56;;;;;;;4.30;2.83;;;19.30;99.90;;;;;;5038049;28;20417;-71
2022/07/06 01:20:23;;;;;;;2.90;2.53;;;19.30;99.90;;;;;;5043361;28;20186;-70
2022/07/06 01:22:51;;;;;;;3.57;3.07;;;19.30;99.90;;;;;;5038363;28;20441;-71
2022/07/06 01:25:18;;;;;;;3.40;3.10;;;19.30;99.90;;;;;;5042621;28;20451;-71
2022/07/06 01:27:44;;;;;;;5.80;2.90;;;19.20;99.90;;;;;;5043036;28;20579;-71
2022/07/06 01:30:12;;;;;;;3.43;3.13;;;19.10;99.90;;;;;;5033877;28;20489;-69
2022/07/06 01:32:39;;;;;;;3.30;3.00;;;19.00;99.90;;;;;;5025073;28;20245;-71
2022/07/06 01:35:06;;;;;;;3.23;2.80;;;19.10;99.90;;;;;;5026549;28;20413;-72
2022/07/06 01:37:32;;;;;;;6.03;3.00;;;19.20;99.90;;;;;;5023079;28;20430;-69
2022/07/06 01:39:59;;;;;;;3.77;2.83;;;19.10;99.90;;;;;;5029221;28;20421;-71
2022/07/06 01:42:25;;;;;;;3.47;2.73;;;19.20;99.90;;;;;;5053281;22;20223;-71
2022/07/06 01:44:51;;;;;;;3.10;2.80;;;19.30;99.90;;;;;;5023410;28;20510;-71
2022/07/06 01:47:16;;;;;;;3.73;3.33;;;19.40;99.90;;;;;;5023680;28;20241;-71
2022/07/06 01:49:42;;;;;;;3.00;2.63;;;19.30;99.80;;;;;;5023150;28;20238;-71
2022/07/06 01:52:07;;;;;;;3.23;2.47;;;19.30;99.90;;;;;;5023438;28;20183;-72
2022/07/06 01:54:33;;;;;;;5.70;2.73;;;19.50;99.60;;;;;;5005782;28;20180;-71
2022/07/06 01:56:59;;;;;;;2.83;2.50;;;19.50;99.60;;;;;;5022919;28;20186;-71
2022/07/06 01:59:24;;;;;;;2.70;2.43;;;19.60;99.30;;;;;;5023365;28;20656;-71
2022/07/06 02:01:50;;;;;;;2.23;2.03;;;19.60;99.00;;;;;;5022276;28;20621;-70
2022/07/06 02:04:16;;;;;;;2.60;2.40;;;19.50;98.70;;;;;;5023376;28;20179;-72
2022/07/06 02:06:41;;;;;;;2.60;2.40;;;19.70;99.10;;;;;;5026883;28;20183;-72
2022/07/06 02:09:07;;;;;;;3.57;2.67;;;19.80;99.10;;;;;;5026722;28;20749;-72
2022/07/06 02:11:33;;;;;;;6.17;2.80;;;19.60;98.80;;;;;;5026587;28;20179;-71
2022/07/06 02:13:58;;;;;;;2.60;2.20;;;19.50;98.80;;;;;;5010005;28;20244;-72
2022/07/06 02:16:24;;;;;;;4.30;2.30;;;19.50;99.20;;;;;;5007061;28;20535;-71
2022/07/06 02:18:49;;;;;;;4.33;2.53;;;19.30;99.30;;;;;;5005667;28;20180;-71
2022/07/06 02:21:15;;;;;;;4.00;2.90;;;19.30;99.10;;;;;;5006866;28;20176;-71
2022/07/06 02:23:41;;;;;;;3.30;2.57;;;19.30;99.60;;;;;;5006868;28;20353;-71
2022/07/06 02:26:06;;;;;;;5.47;2.87;;;19.30;99.50;;;;;;5006939;28;20180;-71
2022/07/06 02:28:32;;;;;;;3.33;2.40;;;19.30;99.30;;;;;;5007444;28;20200;-72
2022/07/06 02:30:58;;;;;;;5.23;2.30;;;19.20;99.30;;;;;;5027881;28;20179;-71
2022/07/06 02:33:23;;;;;;;3.37;2.47;;;19.30;99.40;;;;;;5014511;28;20203;-71
2022/07/06 02:35:49;;;;;;;2.77;2.47;;;19.40;99.30;;;;;;5007016;28;20190;-71
2022/07/06 02:38:14;;;;;;;2.80;2.30;;;19.50;99.20;;;;;;5006759;28;20176;-71
2022/07/06 02:40:40;;;;;;;3.00;2.80;;;19.50;99.30;;;;;;5006586;28;20180;-71
2022/07/06 02:43:06;;;;;;;5.20;2.60;;;19.20;99.50;;;;;;5006217;28;20220;-71
2022/07/06 02:45:32;;;;;;;3.03;2.67;;;19.10;99.90;;;;;;5006777;28;20183;-72
2022/07/06 02:47:58;;;;;;;2.67;2.47;;;19.10;99.90;;;;;;5006414;28;20919;-71
2022/07/06 02:50:24;;;;;;;2.30;2.10;;;19.00;99.90;;;;;;5006447;28;20198;-72
2022/07/06 02:52:50;;;;;;;5.13;2.60;;;19.00;99.90;;;;;;5006365;28;21022;-71
2022/07/06 02:55:16;;;;;;;3.20;2.40;;;18.80;99.90;;;;;;5006090;28;20442;-71
2022/07/06 02:57:42;;;;;;;3.63;2.40;;;18.60;99.90;;;;;;5005938;28;20183;-71
2022/07/06 03:00:09;;;;;;;3.27;2.97;;;18.80;99.90;;;;;;5005934;28;20435;-71
2022/07/06 03:02:35;;;;;;;2.43;2.23;;;18.70;99.90;;;;;;5006080;28;20985;-71
2022/07/06 03:05:01;;;;;;;2.90;2.70;;;18.80;99.90;;;;;;5005886;28;20469;-71
2022/07/06 03:07:27;;;;;;;3.10;2.53;;;18.80;99.90;;;;;;5006456;28;20994;-72
2022/07/06 03:09:52;;;;;;;4.23;2.83;;;18.90;99.90;;;;;;5005886;28;20198;-72
2022/07/06 03:12:18;;;;;;;4.23;2.90;;;19.00;99.90;;;;;;5005521;28;20196;-71
2022/07/06 03:14:44;;;;;;;2.93;2.73;;;19.00;99.90;;;;;;5006179;28;20203;-72
2022/07/06 03:17:09;;;;;;;3.90;3.00;;;18.80;99.90;;;;;;5007302;28;20469;-71
2022/07/06 03:19:35;;;;;;;3.37;2.97;;;18.80;99.90;;;;;;5005911;28;20543;-71
2022/07/06 03:22:01;;;;;;;7.73;3.27;;;18.80;99.90;;;;;;5021944;28;20186;-71
2022/07/06 03:24:27;;;;;;;4.30;3.10;;;18.90;99.90;;;;;;5025261;28;20648;-71
2022/07/06 03:26:53;;;;;;;4.13;3.23;;;18.70;99.90;;;;;;5025166;28;20958;-71
2022/07/06 03:29:19;;;;;;;2.90;2.70;;;18.80;99.90;;;;;;5025127;28;20489;-71
2022/07/06 03:31:44;;;;;;;3.17;2.90;;;18.80;99.90;;;;;;5020075;28;20203;-71
2022/07/06 03:34:10;;;;;;;3.03;2.73;;;18.80;99.90;;;;;;5013938;28;20254;-72
2022/07/06 03:36:35;;;;;;;3.60;3.13;;;18.70;99.90;;;;;;5005463;28;20649;-72
2022/07/06 03:39:01;;;;;;;3.23;2.80;;;18.60;99.90;;;;;;5005469;28;20184;-72
2022/07/06 03:41:26;;;;;;;2.80;2.60;;;18.60;99.90;;;;;;5004197;28;20180;-72
2022/07/06 03:43:52;;;;;;;4.07;3.10;;;18.70;99.90;;;;;;5005473;28;20739;-71
2022/07/06 03:46:18;;;;;;;4.40;3.10;;;18.60;99.90;;;;;;5023856;28;20270;-71
2022/07/06 03:48:43;;;;;;;4.30;3.60;;;18.60;99.90;;;;;;5024804;28;20690;-71
2022/07/06 03:51:10;;;;;;;3.10;2.70;;;18.50;99.90;;;;;;5023635;28;20202;-71
2022/07/06 03:53:36;;;;;;;3.97;2.60;;;18.50;99.90;;;;;;5015200;28;20754;-71
2022/07/06 03:58:45;;;;;;;3.77;2.80;;;18.60;99.90;;;;;;5008652;28;20230;-72
2022/07/06 04:01:11;;;;;;;3.90;3.30;;;18.70;99.90;;;;;;5009465;28;20914;-71
2022/07/06 04:03:36;;;;;;;2.80;2.60;;;18.70;99.90;;;;;;5022735;28;20203;-72
2022/07/06 04:06:02;;;;;;;3.50;3.20;;;18.80;99.90;;;;;;5005064;28;20560;-72
2022/07/06 04:08:28;;;;;;;2.70;2.50;;;18.80;99.90;;;;;;5003507;28;20286;-72
2022/07/06 04:10:54;;;;;;;4.20;3.50;;;18.80;99.90;;;;;;5004707;28;20599;-72
2022/07/06 04:13:19;;;;;;;4.90;2.70;;;18.50;99.90;;;;;;5004567;28;20223;-70
2022/07/06 04:15:45;;;;;;;4.03;3.50;;;18.60;99.90;;;;;;5003745;28;21194;-71
2022/07/06 04:18:10;;;;;;;3.63;3.30;;;18.60;99.90;;;;;;5004772;28;20211;-71
2022/07/06 04:20:36;;;;;;;3.33;3.03;;;18.60;99.90;;;;;;5004664;28;20187;-71
2022/07/06 04:23:02;;;;;;;3.80;3.43;;;18.70;99.90;;;;;;5004703;28;20207;-72
2022/07/06 04:25:28;;;;;;;3.77;2.50;;;18.60;99.90;;;;;;5021294;28;20175;-72
2022/07/06 04:27:53;;;;;;;4.03;3.33;;;18.80;99.90;;;;;;5023676;28;20450;-71
2022/07/06 04:30:19;;;;;;;4.53;3.40;;;18.70;99.90;;;;;;5023592;28;20175;-71
2022/07/06 04:32:44;;;;;;;3.57;3.27;;;18.50;99.90;;;;;;5024056;28;20194;-72
2022/07/06 04:35:10;;;;;;;6.23;3.70;;;18.40;99.90;;;;;;5024015;28;20175;-71
2022/07/06 04:37:37;;;;;;;3.97;3.50;;;18.50;99.90;;;;;;5024040;28;20179;-73
2022/07/06 04:40:03;;;;;;;4.20;3.80;;;18.60;99.90;;;;;;5024014;28;20500;-72
2022/07/06 04:42:29;;;;;;;4.20;3.90;;;18.70;99.90;;;;;;5018800;28;20471;-72
2022/07/06 04:44:54;;;;;;;4.33;3.93;;;18.80;99.90;;;;;;5004421;28;20421;-72
2022/07/06 04:47:20;;;;;;;4.60;4.20;;;18.70;99.90;;;;;;5004059;28;20279;-72
2022/07/06 04:49:46;;;;;;;4.70;4.30;;;18.60;99.90;;;;;;5004678;28;20191;-71
2022/07/06 04:52:12;;;;;;;5.53;3.70;;;18.50;99.90;;;;;;5004108;28;20200;-69
2022/07/06 04:54:37;;;;;;;4.10;3.60;;;18.30;99.90;;;;;;5004514;28;20441;-69
2022/07/06 04:57:04;;;;;;;5.50;4.60;;;18.30;99.90;;;;;;5004212;28;20184;-72
2022/07/06 04:59:29;;;;;;;6.20;4.20;;;18.30;99.90;;;;;;5019426;28;20565;-71
2022/07/06 05:01:55;;;;;;;4.57;4.17;;;18.40;99.90;;;;;;5003661;28;20421;-70
2022/07/06 05:04:21;;;;;;;5.17;4.30;;;18.20;99.90;;;;;;5004197;28;20182;-70
2022/07/06 05:06:47;;;;;;;5.47;4.00;;;18.30;99.90;;;;;;5004281;28;20183;-71
2022/07/06 05:09:13;;;;;;;5.73;4.10;;;18.40;99.90;;;;;;5003660;28;20524;-70
2022/07/06 05:11:39;;;;;;;6.53;4.67;;;18.30;99.90;;;;;;5020527;28;20175;-71
2022/07/06 05:14:05;;;;;;;5.00;4.50;;;18.50;99.90;;;;;;5023313;28;20430;-71
2022/07/06 05:16:31;;;;;;;5.80;4.97;;;18.60;99.90;;;;;;5013102;28;20180;-72
2022/07/06 05:18:57;;;;;;;4.43;4.13;;;18.50;99.90;;;;;;5003945;28;20505;-71
2022/07/06 05:21:23;;;;;;;5.57;4.97;;;18.30;99.90;;;;;;5011749;28;20493;-71
2022/07/06 05:23:48;;;;;;;8.83;4.30;;;18.40;99.90;;;;;;5023415;28;20257;-71
2022/07/06 05:26:14;;;;;;;8.20;4.93;;;18.40;99.90;;;;;;5023515;28;20182;-70
2022/07/06 05:28:39;;;;;;;4.67;4.20;;;18.50;99.90;;;;;;5023531;28;20782;-71
2022/07/06 05:31:05;;;;;;;4.70;4.20;;;18.70;99.90;;;;;;5022773;28;20183;-70
2022/07/06 05:33:31;;;;;;;5.20;4.70;;;18.70;99.90;;;;;;5023438;28;20195;-71
2022/07/06 05:35:56;;;;;;;5.30;4.50;;;18.70;99.90;;;;;;5019497;28;20442;-71
2022/07/06 05:38:22;;;;;;;7.50;4.13;;;18.80;99.90;;;;;;5012783;28;20179;-71
2022/07/06 05:40:48;;;;;;;4.80;4.37;;;18.80;99.90;;;;;;5011126;28;20182;-71
2022/07/06 05:43:13;;;;;;;4.67;4.17;;;18.90;99.90;;;;;;5022863;28;20606;-70
2022/07/06 05:45:39;;;;;;;5.03;4.53;;;19.20;99.90;;;;;;5019410;28;20183;-71
2022/07/06 05:50:48;;;;;;;4.47;3.93;;;18.80;99.90;;;;;;5014919;28;20214;-71
2022/07/06 05:53:14;;;;;;;5.53;4.30;;;18.60;99.90;;;;;;5018497;28;20461;-71
2022/07/06 05:55:40;;;;;;;4.83;3.97;;;18.70;99.90;;;;;;5007338;28;20735;-71
2022/07/06 05:58:05;;;;;;;6.47;4.50;;;18.80;99.90;;;;;;5013886;28;20175;-71
2022/07/06 06:00:31;;;;;;;4.30;3.90;;;18.80;99.90;;;;;;5019278;28;20286;-70
2022/07/06 06:02:58;;;;;;;4.00;3.60;;;19.10;99.90;;;;;;5007364;28;20199;-70
2022/07/06 06:05:24;;;;;;;4.60;4.20;;;19.30;99.90;;;;;;5007270;28;20451;-69
2022/07/06 06:07:51;;;;;;;4.60;4.20;;;19.20;99.90;;;;;;5006899;28;20515;-70
2022/07/06 06:10:17;;;;;;;6.43;4.43;;;19.30;99.90;;;;;;5006928;28;20506;-71
2022/07/06 06:12:44;;;;;;;3.70;3.40;;;19.20;99.90;;;;;;5012541;28;20442;-70
2022/07/06 06:15:11;;;;;;;4.90;4.50;;;19.20;99.90;;;;;;5019401;28;20638;-70
2022/07/06 06:17:37;;;;;;;4.80;4.40;;;19.20;99.90;;;;;;5018974;28;20414;-70
2022/07/06 06:20:06;;;;;;;4.30;4.00;;;19.10;99.90;;;;;;5026540;28;20402;-71
2022/07/06 06:22:43;;;;;;;5.50;3.90;;;19.00;99.90;;;;;;5016162;28;20438;-70
2022/07/06 06:25:09;;;;;;;5.40;4.00;;;19.10;99.90;;;;;;5011111;28;20496;-70
2022/07/06 06:27:34;;;;;;;5.70;4.13;;;19.30;99.90;;;;;;5020395;28;20451;-70
2022/07/06 06:30:00;;;;;;;6.00;4.63;;;19.30;99.90;;;;;;5026154;28;20203;-70
2022/07/06 06:32:25;;;;;;;4.50;4.03;;;19.40;99.90;;;;;;5025789;28;20286;-70
2022/07/06 06:34:51;;;;;;;4.47;3.40;;;19.50;99.90;;;;;;5026168;28;20221;-71
2022/07/06 06:37:17;;;;;;;4.70;3.70;;;19.70;99.90;;;;;;5026658;28;20179;-70
2022/07/06 06:39:42;;;;;;;4.57;4.17;;;19.80;99.90;;;;;;5026077;28;20186;-70
2022/07/06 06:42:08;;;;;;;4.80;4.00;;;19.70;99.90;;;;;;5009564;28;20615;-73
2022/07/06 06:44:33;;;;;;;4.27;3.97;;;19.70;99.90;;;;;;5006265;28;20179;-71
2022/07/06 06:47:00;;;;;;;5.83;4.13;;;19.70;99.90;;;;;;5006430;28;20203;-75
2022/07/06 06:49:25;;;;;;;4.50;3.83;;;19.70;99.90;;;;;;5014550;28;20665;-73
2022/07/06 06:51:51;;;;;;;6.27;4.13;;;19.80;99.90;;;;;;5005599;28;20414;-72
2022/07/06 06:54:16;;;;;;;8.23;3.77;;;20.00;99.90;;;;;;5005914;28;20683;-72
2022/07/06 06:56:42;;;;;;;5.20;3.50;;;20.00;99.90;;;;;;5006030;28;20176;-73
2022/07/06 06:59:07;;;;;;;5.77;4.00;;;20.10;99.90;;;;;;5006305;28;20255;-70
2022/07/06 07:01:33;;;;;;;4.07;3.67;;;20.00;99.90;;;;;;5020773;28;20191;-69
2022/07/06 07:03:59;;;;;;;4.17;3.60;;;20.00;99.90;;;;;;5007003;28;20257;-72
2022/07/06 07:06:25;;;;;;;4.57;3.80;;;19.90;99.90;;;;;;5022225;28;20681;-71
2022/07/06 07:08:50;;;;;;;3.73;3.40;;;19.80;99.90;;;;;;5005834;28;20203;-72
2022/07/06 07:11:16;;;;;;;5.20;3.77;;;20.00;99.90;;;;;;5005647;28;20653;-71
2022/07/06 07:13:41;;;;;;;6.43;3.57;;;20.00;99.90;;;;;;5019832;28;20191;-71
2022/07/06 07:16:07;;;;;;;5.07;3.70;;;19.90;99.90;;;;;;5018109;28;20617;-71
2022/07/06 07:18:32;;;;;;;4.50;3.70;;;20.30;99.90;;;;;;5005854;28;20242;-69
2022/07/06 07:20:58;;;;;;;4.90;4.43;;;20.50;99.90;;;;;;5019062;28;20183;-71
2022/07/06 07:23:24;;;;;;;4.13;3.83;;;20.40;99.90;;;;;;5025625;28;20693;-70
2022/07/06 07:25:49;;;;;;;8.03;3.87;;;20.50;99.90;;;;;;5007425;28;20211;-71
2022/07/06 07:28:15;;;;;;;3.70;3.40;;;20.60;99.90;;;;;;5016904;28;20205;-71
2022/07/06 07:30:41;;;;;;;4.53;3.70;;;20.60;99.90;;;;;;5016859;28;20203;-72
2022/07/06 07:33:07;;;;;;;3.87;3.33;;;20.60;99.90;;;;;;5010815;28;20616;-73
2022/07/06 07:35:32;;;;;;;4.53;3.60;;;20.70;99.90;;;;;;5022647;28;20179;-71
2022/07/06 07:37:58;;;;;;;4.17;3.57;;;20.70;99.90;;;;;;5025194;28;20227;-70
2022/07/06 07:40:24;;;;;;;3.70;3.20;;;20.70;99.90;;;;;;5025238;28;20191;-70
2022/07/06 07:42:50;;;;;;;3.23;2.93;;;20.50;99.90;;;;;;5024923;28;20230;-70
2022/07/06 07:45:15;;;;;;;5.20;3.50;;;20.40;99.90;;;;;;5025188;28;20202;-69
2022/07/06 07:47:41;;;;;;;4.90;3.70;;;20.40;99.90;;;;;;5004521;28;20649;-70
2022/07/06 07:50:07;;;;;;;4.20;3.60;;;20.60;99.90;;;;;;5005467;28;20180;-70
2022/07/06 07:52:33;;;;;;;5.50;4.23;;;20.80;99.90;;;;;;5004869;28;20210;-69
2022/07/06 07:54:59;;;;;;;6.13;4.10;;;20.60;99.90;;;;;;5005075;28;20419;-69
2022/07/06 07:57:24;;;;;;;5.70;3.83;;;20.50;99.90;;;;;;5005178;28;20183;-71
2022/07/06 07:59:50;;;;;;;3.80;3.50;;;20.50;99.90;;;;;;5005141;28;20194;-70
2022/07/06 08:02:15;;;;;;;6.53;4.00;;;20.50;99.90;;;;;;5014863;28;20684;-71
2022/07/06 08:04:41;;;;;;;5.60;3.50;;;20.50;99.90;;;;;;5024640;28;20270;-71
2022/07/06 08:07:07;;;;;;;3.93;3.40;;;20.60;99.50;;;;;;5010064;28;20191;-71
2022/07/06 08:09:33;;;;;;;5.47;3.80;;;20.90;99.10;;;;;;5021489;28;20207;-72
2022/07/06 08:11:58;;;;;;;3.97;3.10;;;21.00;98.80;;;;;;5056128;22;20230;-72
2022/07/06 08:14:25;;;;;;;5.17;4.17;;;20.80;99.50;;;;;;5023350;28;21457;-71
2022/07/06 08:16:51;;;;;;;4.63;4.10;;;20.90;99.60;;;;;;5024328;28;20175;-71
2022/07/06 08:19:16;;;;;;;4.50;4.10;;;20.80;99.40;;;;;;5023815;28;20443;-72
2022/07/06 08:21:42;;;;;;;4.87;3.73;;;20.80;99.90;;;;;;5023742;28;20231;-71
2022/07/06 08:24:09;;;;;;;7.40;3.97;;;21.10;99.90;;;;;;5023677;28;20217;-69
2022/07/06 08:26:35;;;;;;;6.57;4.00;;;21.10;99.90;;;;;;5023572;28;20493;-69
2022/07/06 08:29:00;;;;;;;4.00;3.70;;;21.10;99.90;;;;;;5023628;28;20532;-68
2022/07/06 08:31:29;;;;;;;5.83;4.13;;;21.00;99.80;;;;;;5023514;28;20222;-70
2022/07/06 08:33:55;;;;;;;7.27;3.80;;;20.90;99.90;;;;;;5023847;28;20175;-69
2022/07/06 08:36:22;;;;;;;7.67;3.77;;;21.10;99.70;;;;;;5023244;28;20784;-69
2022/07/06 08:38:48;;;;;;;5.00;3.80;;;21.00;99.90;;;;;;5023493;28;21276;-70
2022/07/06 08:41:20;;;;;;;4.00;3.70;;;21.20;99.90;;;;;;5023794;28;20425;-70
2022/07/06 08:43:46;;;;;;;4.07;3.70;;;21.20;99.90;;;;;;5023358;28;21352;-70
2022/07/06 08:46:13;;;;;;;4.30;4.00;;;21.30;99.70;;;;;;5023380;28;20453;-69
2022/07/06 08:48:40;;;;;;;5.47;3.73;;;21.40;99.50;;;;;;5005487;28;20241;-70
2022/07/06 08:51:07;;;;;;;6.00;3.90;;;21.50;99.90;;;;;;5023307;28;20460;-70
2022/07/06 08:53:33;;;;;;;5.40;3.67;;;21.60;99.60;;;;;;5023494;28;20409;-69
2022/07/06 08:55:59;;;;;;;6.20;3.83;;;21.70;99.80;;;;;;5023041;28;20414;-68
2022/07/06 08:58:27;;;;;;;4.20;3.80;;;21.90;99.60;;;;;;5023150;28;20442;-68
2022/07/06 09:00:56;;;;;;;5.00;3.83;;;22.00;98.80;;;;;;5023244;28;20449;-68
2022/07/06 09:03:23;;;;;;;3.80;3.17;;;22.10;98.60;;;;;;5023227;28;20418;-68
2022/07/06 09:05:50;;;;;;;4.20;3.50;;;22.20;97.80;;;;;;5022841;28;20414;-69
2022/07/06 09:08:18;;;;;;;5.87;3.63;;;22.20;98.50;;;;;;5023379;28;20820;-67
2022/07/06 09:10:43;;;;;;;4.33;3.90;;;22.20;98.10;;;;;;5023165;28;20446;-68
2022/07/06 09:13:09;;;;;;;4.40;3.50;;;22.20;98.60;;;;;;5023079;28;20950;-68
2022/07/06 09:15:38;;;;;;;5.50;4.50;;;22.20;98.70;;;;;;5030200;28;20186;-68
2022/07/06 09:18:04;;;;;;;3.90;3.50;;;22.20;97.80;;;;;;5029204;28;20427;-68
2022/07/06 09:20:31;;;;;;;6.60;3.90;;;22.20;98.50;;;;;;5029599;28;20505;-68
2022/07/06 09:23:06;;;;;;;5.23;3.87;;;22.40;98.60;;;;;;5029946;28;20476;-70
2022/07/06 09:25:32;;;;;;;4.80;3.83;;;22.70;97.80;;;;;;5028511;28;20421;-68
2022/07/06 09:27:59;;;;;;;6.43;3.30;;;22.60;98.30;;;;;;5029495;28;20938;-68
2022/07/06 09:30:26;;;;;;;6.00;3.80;;;22.60;97.30;;;;;;5029249;28;20986;-70
2022/07/06 09:32:53;;;;;;;4.53;3.10;;;22.40;97.30;;;;;;5011611;28;20480;-69
2022/07/06 09:35:20;;;;;;;4.70;3.40;;;22.40;97.30;;;;;;5029463;28;20829;-68
2022/07/06 09:37:49;;;;;;;3.97;3.60;;;22.40;97.40;;;;;;5029825;28;20781;-68
2022/07/06 09:40:18;;;;;;;7.30;3.70;;;22.50;97.30;;;;;;5011844;28;20512;-69
2022/07/06 09:42:45;;;;;;;4.07;2.80;;;22.70;96.90;;;;;;5029493;28;20426;-68
2022/07/06 09:45:10;;;;;;;6.07;4.47;;;22.60;96.90;;;;;;5029360;28;20415;-71
2022/07/06 09:47:37;;;;;;;3.43;3.13;;;22.80;96.90;;;;;;5030053;28;20493;-71
2022/07/06 09:50:05;;;;;;;4.87;4.47;;;22.40;97.10;;;;;;5018594;28;20262;-70
2022/07/06 09:52:34;;;;;;;9.60;4.47;;;22.20;97.00;;;;;;5021147;28;20444;-69
2022/07/06 09:55:00;;;;;;;4.00;3.60;;;22.10;97.60;;;;;;5015708;28;20950;-69
2022/07/06 09:57:25;;;;;;;5.73;3.57;;;22.40;97.00;;;;;;5032768;28;20413;-70
2022/07/06 09:59:52;;;;;;;7.63;3.27;;;22.40;96.80;;;;;;5018964;28;20228;-70
2022/07/06 10:02:20;;;;;;;6.60;3.97;;;22.60;96.50;;;;;;5035518;28;20349;-71
2022/07/06 10:04:47;;;;;;;4.30;3.90;;;22.80;96.30;;;;;;5038284;28;20417;-69
2022/07/06 10:07:13;;;;;;;6.80;3.40;;;22.70;95.80;;;;;;5036567;28;20452;-71
2022/07/06 10:09:41;;;;;;;6.33;4.43;;;22.80;96.00;;;;;;5038951;28;20456;-72
2022/07/06 10:12:12;;;;;;;6.50;3.77;;;22.90;96.00;;;;;;5034760;28;20437;-70
2022/07/06 10:14:39;;;;;;;5.10;3.90;;;23.00;96.40;;;;;;5015042;28;20421;-70
2022/07/06 10:17:05;;;;;;;4.53;3.33;;;23.10;95.30;;;;;;5032836;28;20532;-70
2022/07/06 10:19:32;;;;;;;5.97;3.60;;;23.10;95.50;;;;;;5028873;28;20410;-70
2022/07/06 10:22:00;;;;;;;3.23;2.93;;;23.10;96.00;;;;;;5029550;28;20433;-71
2022/07/06 10:24:27;;;;;;;5.90;3.27;;;23.40;96.50;;;;;;5029205;28;20817;-69
2022/07/06 10:26:54;;;;;;;5.97;3.80;;;23.70;95.20;;;;;;5025104;28;20463;-70
2022/07/06 10:29:20;;;;;;;5.80;4.23;;;23.60;95.20;;;;;;5025421;28;20472;-70
2022/07/06 10:31:48;;;;;;;5.83;3.93;;;23.40;95.30;;;;;;5025811;28;20521;-70
2022/07/06 10:34:17;;;;;;;5.60;3.70;;;23.20;95.90;;;;;;5026205;28;20463;-70
2022/07/06 10:36:47;;;;;;;4.93;3.40;;;23.60;96.30;;;;;;5026308;28;20414;-68
2022/07/06 10:41:57;;;;;;;6.60;4.00;;;23.30;95.90;;;;;;5025411;28;20421;-70
2022/07/06 10:44:26;;;;;;;5.70;3.43;;;23.20;96.10;;;;;;5026011;28;20426;-70
2022/07/06 10:46:53;;;;;;;5.10;3.90;;;23.70;95.70;;;;;;5025919;28;20285;-70
2022/07/06 10:49:20;;;;;;;3.43;2.77;;;23.60;95.20;;;;;;5026102;28;20556;-70
2022/07/06 10:51:46;;;;;;;4.80;3.70;;;23.60;95.40;;;;;;5025724;28;20460;-70
2022/07/06 10:54:12;;;;;;;5.67;3.50;;;23.60;94.90;;;;;;5025545;28;20857;-70
2022/07/06 10:56:47;;;;;;;4.97;3.53;;;23.80;94.70;;;;;;5024997;28;20434;-69
2022/07/06 10:59:14;;;;;;;6.03;3.80;;;23.60;94.80;;;;;;5025720;28;20183;-70
2022/07/06 11:01:40;;;;;;;5.30;3.90;;;23.70;94.70;;;;;;5025752;28;20430;-72
2022/07/06 11:04:08;;;;;;;4.30;3.90;;;23.50;94.90;;;;;;5025616;28;20422;-70
2022/07/06 11:06:38;;;;;;;8.77;4.60;;;23.20;95.40;;;;;;5027131;28;20499;-70
2022/07/06 11:09:11;;;;;;;5.70;4.40;;;23.30;95.70;;;;;;5025680;28;20839;-69
2022/07/06 11:11:36;;;;;;;4.77;4.03;;;23.30;95.80;;;;;;5006896;28;20474;-70
2022/07/06 11:14:08;;;;;;;6.37;4.23;;;23.70;95.70;;;;;;5015211;28;20469;-70
2022/07/06 11:16:39;;;;;;;3.80;3.40;;;24.20;95.00;;;;;;5025155;28;20250;-71
2022/07/06 11:19:09;;;;;;;4.57;3.53;;;24.70;94.20;;;;;;5025600;28;20426;-70
2022/07/06 11:21:49;;;;;;;5.33;3.30;;;24.70;93.70;;;;;;5025137;28;20442;-71
2022/07/06 11:24:20;;;;;;;4.37;3.97;;;24.90;93.00;;;;;;5025113;28;21488;-70
2022/07/06 11:26:47;;;;;;;5.10;4.10;;;24.60;93.50;;;;;;5024676;28;20424;-70
2022/07/06 11:29:14;;;;;;;6.27;3.67;;;23.90;94.30;;;;;;5024890;28;20464;-70
2022/07/06 11:31:42;;;;;;;6.13;3.80;;;23.90;94.60;;;;;;5014136;28;20517;-70
2022/07/06 11:34:10;;;;;;;5.70;3.83;;;23.90;94.30;;;;;;5005034;28;20411;-69
2022/07/06 11:36:37;;;;;;;7.93;3.40;;;24.60;94.00;;;;;;5004737;28;20411;-70
2022/07/06 11:39:05;;;;;;;6.23;3.97;;;26.00;92.00;;;;;;5024466;28;20505;-71
2022/07/06 11:41:31;;;;;;;4.57;3.87;;;26.70;91.20;;;;;;5024506;28;20950;-70
2022/07/06 11:43:57;;;;;;;5.20;3.60;;;27.30;88.90;;;;;;5024361;28;20412;-70
2022/07/06 11:46:27;;;;;;;4.27;2.90;;;27.10;89.40;;;;;;5024615;28;20424;-70
2022/07/06 11:48:56;;;;;;;3.43;3.13;;;27.40;88.90;;;;;;5007170;28;20210;-71
2022/07/06 11:51:23;;;;;;;4.50;3.43;;;27.40;88.30;;;;;;5024710;28;20499;-70
2022/07/06 11:53:59;;;;;;;7.73;3.40;;;29.30;84.50;;;;;;5024858;28;20414;-69
2022/07/06 11:56:26;;;;;;;7.17;3.47;;;28.90;81.50;;;;;;5024877;28;20398;-71
2022/07/06 11:58:59;;;;;;;4.73;3.77;;;28.50;83.50;;;;;;5024081;28;20453;-70
2022/07/06 12:01:27;;;;;;;3.80;3.50;;;27.70;84.00;;;;;;5024430;28;20422;-70
2022/07/06 12:03:57;;;;;;;3.80;3.40;;;27.50;84.60;;;;;;5024369;28;20472;-71
2022/07/06 12:06:24;;;;;;;4.13;3.70;;;27.60;83.80;;;;;;5006554;28;20414;-70
2022/07/06 12:08:53;;;;;;;4.33;3.93;;;26.50;86.70;;;;;;5024059;28;20471;-68
2022/07/06 12:11:27;;;;;;;4.23;3.60;;;26.30;86.30;;;;;;5022924;28;20998;-70
2022/07/06 12:13:55;;;;;;;4.17;3.27;;;27.70;84.30;;;;;;5023781;28;20493;-70
2022/07/06 12:16:23;;;;;;;4.03;3.63;;;27.50;83.70;;;;;;5006764;28;20908;-69
2022/07/06 12:18:50;;;;;;;5.07;3.60;;;27.00;84.20;;;;;;5004303;28;20810;-69
2022/07/06 12:21:18;;;;;;;4.53;3.23;;;27.80;82.50;;;;;;4986534;28;20453;-71
2022/07/06 12:23:49;;;;;;;4.37;3.47;;;28.20;81.80;;;;;;5013966;28;20610;-71
2022/07/06 12:26:16;;;;;;;5.87;3.80;;;27.50;82.30;;;;;;5016208;28;20500;-70
2022/07/06 12:28:43;;;;;;;4.30;3.73;;;27.20;83.10;;;;;;5023439;28;20453;-69
2022/07/06 12:31:10;;;;;;;5.00;4.00;;;26.40;86.10;;;;;;5023804;28;20432;-70
2022/07/06 12:33:36;;;;;;;5.67;3.80;;;26.00;86.00;;;;;;5006001;28;20765;-72
2022/07/06 12:36:10;;;;;;;3.90;3.40;;;26.60;87.00;;;;;;5023691;28;20425;-71
2022/07/06 12:38:47;;;;;;;7.50;3.57;;;28.20;81.40;;;;;;5023291;28;20560;-70
2022/07/06 12:41:33;;;;;;;4.57;4.17;;;27.90;80.20;;;;;;5023190;28;20468;-69
2022/07/06 12:44:09;;;;;;;4.73;3.93;;;27.80;80.20;;;;;;5023171;28;20416;-69
2022/07/06 12:46:39;;;;;;;4.27;3.77;;;28.00;80.50;;;;;;5022428;28;20471;-69
2022/07/06 12:49:22;;;;;;;4.47;3.37;;;28.90;77.90;;;;;;4986085;28;20462;-71
2022/07/06 12:51:57;;;;;;;7.90;3.87;;;30.60;74.90;;;;;;5023026;28;20445;-69
2022/07/06 12:54:24;;;;;;;4.33;3.47;;;30.90;72.00;;;;;;5023447;28;20477;-71